Time;durP1;ratioP1;P1;durP2;ratioP2;P2;SDS_P1;SDS_P2;PMS_P1;PMS_P2;Temp;Humidity;BMP_temperature;BMP_pressure;BME280_temperature;BME280_humidity;BME280_pressure;Samples;Min_cycle;Max_cycle;Signal;HPM_P1;HPM_P2
2021/08/08 00:00:09;;;;;;;4.03;2.70;;;17.30;99.90;;;;;;5056227;28;20719;-81
2021/08/08 00:02:43;;;;;;;3.00;2.57;;;17.30;99.90;;;;;;5068357;28;20235;-81
2021/08/08 00:05:13;;;;;;;6.00;2.60;;;17.30;99.90;;;;;;5051362;28;20328;-84
2021/08/08 00:07:42;;;;;;;5.10;2.63;;;17.30;99.90;;;;;;5057246;28;20263;-83
2021/08/08 00:10:13;;;;;;;4.07;2.73;;;17.30;99.90;;;;;;5054445;28;20253;-84
2021/08/08 00:12:42;;;;;;;4.70;2.63;;;17.30;99.90;;;;;;5052220;28;20245;-83
2021/08/08 00:15:13;;;;;;;2.97;2.47;;;17.30;99.90;;;;;;5054580;28;20232;-84
2021/08/08 00:17:41;;;;;;;5.53;2.90;;;17.20;99.90;;;;;;5053105;28;20296;-83
2021/08/08 00:20:11;;;;;;;3.67;2.67;;;17.20;99.90;;;;;;5051197;28;20723;-84
2021/08/08 00:22:42;;;;;;;4.10;2.70;;;17.20;99.90;;;;;;5050213;28;20641;-84
2021/08/08 00:25:11;;;;;;;5.63;3.00;;;17.20;99.90;;;;;;5056267;28;20719;-84
2021/08/08 00:27:40;;;;;;;4.73;2.70;;;17.20;99.90;;;;;;5061748;28;20344;-83
2021/08/08 00:30:09;;;;;;;3.37;2.60;;;17.20;99.90;;;;;;5048299;28;20235;-84
2021/08/08 00:32:38;;;;;;;5.23;2.87;;;17.20;99.90;;;;;;5048941;28;20295;-84
2021/08/08 00:35:10;;;;;;;2.87;2.57;;;17.20;99.90;;;;;;5049781;28;20232;-84
2021/08/08 00:37:42;;;;;;;3.77;2.80;;;17.10;99.90;;;;;;5063978;28;20239;-84
2021/08/08 00:40:15;;;;;;;2.87;2.53;;;17.10;99.90;;;;;;5047268;28;20248;-84
2021/08/08 00:42:46;;;;;;;3.50;3.00;;;17.10;99.90;;;;;;5064370;28;20244;-83
2021/08/08 00:45:18;;;;;;;4.73;2.73;;;17.00;99.90;;;;;;5048037;28;20282;-84
2021/08/08 00:47:49;;;;;;;5.23;3.50;;;16.90;99.90;;;;;;5058252;28;20324;-84
2021/08/08 00:50:20;;;;;;;5.37;3.40;;;16.90;99.90;;;;;;5038280;28;20244;-84
2021/08/08 00:52:49;;;;;;;5.40;3.60;;;16.90;99.90;;;;;;5044328;28;20701;-84
2021/08/08 00:55:19;;;;;;;3.77;2.80;;;16.80;99.90;;;;;;5050579;28;20228;-84
2021/08/08 00:57:47;;;;;;;3.77;3.07;;;16.70;99.90;;;;;;5039642;28;20303;-84
2021/08/08 01:00:17;;;;;;;3.57;2.70;;;16.70;99.90;;;;;;5048910;28;20228;-84
2021/08/08 01:02:49;;;;;;;4.30;3.00;;;16.70;99.90;;;;;;5053321;28;20319;-84
2021/08/08 01:05:27;;;;;;;4.53;3.20;;;16.70;99.90;;;;;;5048175;28;20235;-84
2021/08/08 01:07:59;;;;;;;3.73;3.20;;;16.60;99.90;;;;;;5046506;28;20240;-84
2021/08/08 01:10:32;;;;;;;5.03;3.50;;;16.60;99.90;;;;;;5053843;28;20315;-84
2021/08/08 01:13:01;;;;;;;4.00;3.00;;;16.60;99.90;;;;;;5064431;28;20231;-83
2021/08/08 01:15:31;;;;;;;3.90;3.27;;;16.60;99.90;;;;;;5049826;28;20289;-84
2021/08/08 01:18:01;;;;;;;4.43;3.23;;;16.50;99.90;;;;;;5049599;28;20294;-84
2021/08/08 01:20:29;;;;;;;4.10;3.00;;;16.60;99.90;;;;;;5047750;28;20248;-83
2021/08/08 01:23:04;;;;;;;3.73;3.33;;;16.60;99.90;;;;;;5051169;28;20286;-84
2021/08/08 01:25:37;;;;;;;4.57;3.40;;;16.60;99.90;;;;;;5070501;28;20773;-84
2021/08/08 01:28:06;;;;;;;4.20;3.80;;;16.50;99.90;;;;;;5055525;28;20240;-84
2021/08/08 01:30:38;;;;;;;3.73;3.23;;;16.50;99.90;;;;;;5064850;28;20242;-84
2021/08/08 01:33:09;;;;;;;4.13;3.73;;;16.40;99.90;;;;;;5049489;28;20244;-84
2021/08/08 01:35:51;;;;;;;5.53;3.90;;;16.40;99.90;;;;;;5051752;28;20826;-83
2021/08/08 01:38:24;;;;;;;4.20;3.40;;;16.40;99.90;;;;;;5050188;28;20232;-83
2021/08/08 01:41:02;;;;;;;5.63;3.73;;;16.30;99.90;;;;;;5049594;28;20247;-84
2021/08/08 01:43:43;;;;;;;6.20;4.67;;;16.40;99.90;;;;;;5048023;28;20323;-84
2021/08/08 01:46:13;;;;;;;3.70;3.40;;;16.30;99.90;;;;;;5049687;28;20723;-84
2021/08/08 01:48:55;;;;;;;4.90;4.00;;;16.30;99.90;;;;;;5053374;28;20644;-84
2021/08/08 01:51:24;;;;;;;4.40;4.00;;;16.20;99.90;;;;;;5060881;28;20618;-84
2021/08/08 01:53:55;;;;;;;4.93;4.40;;;16.20;99.90;;;;;;5049692;28;20309;-84
2021/08/08 01:56:25;;;;;;;4.57;3.63;;;16.20;99.90;;;;;;5048327;28;20227;-83
2021/08/08 01:58:55;;;;;;;3.83;3.50;;;16.20;99.90;;;;;;5058411;28;20243;-84
2021/08/08 02:01:29;;;;;;;5.83;3.60;;;16.20;99.90;;;;;;5046364;28;20252;-84
2021/08/08 02:04:15;;;;;;;5.07;3.67;;;16.10;99.90;;;;;;5048685;28;20319;-84
2021/08/08 02:06:47;;;;;;;4.57;3.50;;;16.10;99.90;;;;;;5060476;28;20330;-84
2021/08/08 02:09:17;;;;;;;5.60;3.27;;;16.00;99.90;;;;;;5039279;28;20634;-84
2021/08/08 02:11:47;;;;;;;4.40;3.47;;;16.00;99.90;;;;;;5055799;28;20240;-84
2021/08/08 02:14:17;;;;;;;4.67;3.20;;;15.90;99.90;;;;;;5071615;28;20231;-84
2021/08/08 02:16:48;;;;;;;3.37;3.03;;;15.90;99.90;;;;;;5052779;28;20225;-84
2021/08/08 02:19:20;;;;;;;3.60;3.30;;;15.90;99.90;;;;;;5056236;28;20295;-83
2021/08/08 02:21:53;;;;;;;3.47;3.00;;;15.80;99.90;;;;;;5059939;28;20716;-84
2021/08/08 02:24:25;;;;;;;3.03;2.80;;;15.80;99.90;;;;;;5055669;28;20247;-84
2021/08/08 02:27:05;;;;;;;3.30;3.00;;;15.80;99.90;;;;;;5045648;28;20259;-83
2021/08/08 02:29:33;;;;;;;4.47;2.70;;;15.80;99.90;;;;;;5051687;28;20717;-84
2021/08/08 02:32:01;;;;;;;3.70;2.77;;;15.70;99.90;;;;;;5041863;28;20555;-83
2021/08/08 02:34:35;;;;;;;2.87;2.60;;;15.70;99.90;;;;;;5050760;28;20283;-83
2021/08/08 02:37:05;;;;;;;4.13;2.90;;;15.70;99.90;;;;;;5047431;28;20763;-83
2021/08/08 02:39:34;;;;;;;2.73;2.53;;;15.70;99.90;;;;;;5034163;28;20285;-83
2021/08/08 02:42:04;;;;;;;3.23;2.80;;;15.70;99.90;;;;;;5043752;28;20460;-84
2021/08/08 02:44:35;;;;;;;3.17;2.70;;;15.70;99.90;;;;;;5051368;28;20240;-84
2021/08/08 02:47:04;;;;;;;4.10;2.70;;;15.70;99.90;;;;;;5047345;28;20236;-84
2021/08/08 02:49:32;;;;;;;4.07;2.67;;;15.60;99.90;;;;;;5033752;28;20581;-83
2021/08/08 02:52:01;;;;;;;3.27;2.57;;;15.60;99.90;;;;;;5048041;28;20232;-84
2021/08/08 02:54:29;;;;;;;3.43;2.57;;;15.60;99.90;;;;;;5051913;28;20242;-83
2021/08/08 02:56:58;;;;;;;4.50;2.50;;;15.60;99.90;;;;;;5058709;28;20619;-83
2021/08/08 02:59:28;;;;;;;3.00;2.50;;;15.50;99.90;;;;;;5057549;28;20631;-83
2021/08/08 03:01:57;;;;;;;2.70;2.40;;;15.50;99.90;;;;;;5058798;28;20232;-84
2021/08/08 03:04:26;;;;;;;2.80;2.50;;;15.60;99.90;;;;;;5048154;28;20258;-83
2021/08/08 03:06:55;;;;;;;2.63;2.43;;;15.60;99.90;;;;;;5051990;28;20323;-84
2021/08/08 03:09:24;;;;;;;5.20;2.47;;;15.60;99.90;;;;;;5047866;28;20319;-83
2021/08/08 03:11:53;;;;;;;2.50;2.20;;;15.60;99.90;;;;;;5042673;28;20765;-84
2021/08/08 03:14:21;;;;;;;4.30;2.50;;;15.50;99.90;;;;;;5043717;28;20367;-84
2021/08/08 03:16:53;;;;;;;3.63;2.43;;;15.50;99.90;;;;;;5055133;28;20590;-83
2021/08/08 03:19:25;;;;;;;3.53;2.40;;;15.60;99.90;;;;;;5047822;28;20239;-83
2021/08/08 03:21:55;;;;;;;2.67;2.47;;;15.50;99.90;;;;;;5046467;28;20255;-84
2021/08/08 03:24:23;;;;;;;2.57;2.30;;;15.50;99.90;;;;;;5040885;28;20696;-85
2021/08/08 03:26:54;;;;;;;3.43;2.70;;;15.50;99.90;;;;;;5038709;28;20319;-84
2021/08/08 03:29:23;;;;;;;2.83;2.57;;;15.50;99.90;;;;;;5054058;28;20227;-84
2021/08/08 03:31:53;;;;;;;4.23;2.70;;;15.50;99.90;;;;;;5044290;28;20659;-83
2021/08/08 03:34:23;;;;;;;2.77;2.37;;;15.50;99.90;;;;;;5055574;28;20228;-84
2021/08/08 03:36:51;;;;;;;4.40;2.50;;;15.50;99.90;;;;;;5054145;28;20724;-84
2021/08/08 03:39:23;;;;;;;2.77;2.57;;;15.50;99.90;;;;;;5049279;28;20310;-83
2021/08/08 03:41:52;;;;;;;4.17;2.70;;;15.50;99.90;;;;;;5063059;28;20237;-83
2021/08/08 03:44:21;;;;;;;2.87;2.53;;;15.50;99.90;;;;;;5045528;28;20224;-84
2021/08/08 03:46:49;;;;;;;3.00;2.53;;;15.50;99.90;;;;;;5046568;28;20239;-84
2021/08/08 03:49:19;;;;;;;3.97;2.50;;;15.50;99.90;;;;;;5039248;28;20228;-84
2021/08/08 03:51:47;;;;;;;4.67;2.47;;;15.50;99.90;;;;;;5055733;28;20241;-83
2021/08/08 03:54:17;;;;;;;4.27;2.80;;;15.60;99.90;;;;;;5044733;28;20664;-84
2021/08/08 03:56:46;;;;;;;4.63;3.27;;;15.50;99.90;;;;;;5056926;28;20273;-84
2021/08/08 03:59:14;;;;;;;3.90;2.90;;;15.50;99.90;;;;;;5054381;28;20230;-83
2021/08/08 04:01:44;;;;;;;3.47;2.80;;;15.50;99.90;;;;;;5042462;28;20746;-84
2021/08/08 04:04:12;;;;;;;5.67;2.83;;;15.50;99.90;;;;;;5049920;28;20231;-84
2021/08/08 04:06:42;;;;;;;5.13;3.03;;;15.60;99.90;;;;;;5049271;28;20243;-84
2021/08/08 04:09:10;;;;;;;5.30;2.80;;;15.60;99.90;;;;;;5058932;28;20335;-84
2021/08/08 04:11:39;;;;;;;4.50;3.10;;;15.50;99.90;;;;;;5046128;28;20293;-83
2021/08/08 04:14:07;;;;;;;4.27;3.00;;;15.50;99.90;;;;;;5047965;28;20255;-83
2021/08/08 04:16:35;;;;;;;5.40;3.00;;;15.60;99.90;;;;;;5051344;28;20249;-84
2021/08/08 04:19:04;;;;;;;5.03;2.77;;;15.50;99.90;;;;;;5058783;28;20725;-84
2021/08/08 04:21:33;;;;;;;4.93;3.00;;;15.60;99.90;;;;;;5056637;28;20239;-84
2021/08/08 04:24:03;;;;;;;6.70;3.30;;;15.60;99.90;;;;;;5045052;28;20236;-83
2021/08/08 04:26:31;;;;;;;4.27;3.13;;;15.60;99.90;;;;;;5035807;28;20251;-84
2021/08/08 04:29:00;;;;;;;6.47;2.90;;;15.60;99.90;;;;;;5049663;28;20315;-84
2021/08/08 04:31:28;;;;;;;5.33;3.10;;;15.70;99.90;;;;;;5049718;28;20259;-84
2021/08/08 04:33:56;;;;;;;4.83;3.20;;;15.70;99.90;;;;;;5047971;28;20231;-84
2021/08/08 04:36:24;;;;;;;4.30;3.03;;;15.70;99.90;;;;;;5042487;28;20336;-84
2021/08/08 04:38:52;;;;;;;9.67;3.30;;;15.70;99.90;;;;;;5039869;28;20700;-84
2021/08/08 04:41:22;;;;;;;5.47;3.03;;;15.70;99.90;;;;;;5037849;28;20224;-84
2021/08/08 04:43:50;;;;;;;4.00;2.90;;;15.70;99.90;;;;;;5053869;28;20725;-84
2021/08/08 04:46:19;;;;;;;3.10;2.70;;;15.80;99.90;;;;;;5047359;28;20331;-84
2021/08/08 04:48:48;;;;;;;3.43;2.67;;;15.80;99.90;;;;;;5041700;28;20565;-84
2021/08/08 04:51:16;;;;;;;3.83;3.00;;;15.80;99.90;;;;;;5039342;28;20235;-84
2021/08/08 04:53:45;;;;;;;4.37;3.13;;;15.80;99.90;;;;;;5048061;28;20343;-84
2021/08/08 04:56:13;;;;;;;4.37;2.90;;;15.80;99.90;;;;;;5052371;28;20236;-84
2021/08/08 04:58:42;;;;;;;7.57;3.10;;;15.80;99.90;;;;;;5057131;28;20265;-84
2021/08/08 05:01:10;;;;;;;3.63;2.73;;;15.80;99.90;;;;;;5052329;28;20242;-84
2021/08/08 05:03:39;;;;;;;4.40;3.17;;;15.80;99.90;;;;;;5054308;28;20243;-84
2021/08/08 05:06:07;;;;;;;6.90;3.93;;;15.80;99.90;;;;;;5043245;28;20229;-83
2021/08/08 05:08:35;;;;;;;3.73;3.03;;;15.80;99.90;;;;;;5055738;28;20250;-84
2021/08/08 05:11:04;;;;;;;4.03;3.27;;;15.80;99.90;;;;;;5054450;28;20590;-84
2021/08/08 05:13:33;;;;;;;5.37;3.43;;;15.80;99.90;;;;;;5054206;28;20704;-84
2021/08/08 05:16:04;;;;;;;7.50;3.77;;;15.80;99.90;;;;;;5046109;28;20239;-83
2021/08/08 05:18:32;;;;;;;4.77;3.37;;;15.80;99.90;;;;;;5049562;28;20548;-84
2021/08/08 05:21:00;;;;;;;7.07;3.30;;;15.80;99.90;;;;;;5056369;28;20241;-84
2021/08/08 05:23:29;;;;;;;4.33;3.13;;;15.80;99.90;;;;;;5049158;28;20285;-83
2021/08/08 05:25:59;;;;;;;4.27;3.00;;;15.80;99.90;;;;;;5055115;28;20238;-83
2021/08/08 05:28:29;;;;;;;3.80;2.70;;;15.80;99.90;;;;;;5040978;28;20773;-83
2021/08/08 05:30:57;;;;;;;5.50;3.00;;;15.90;99.90;;;;;;5056030;28;20235;-84
2021/08/08 05:33:27;;;;;;;3.40;3.07;;;15.90;99.90;;;;;;5053963;28;20251;-84
2021/08/08 05:35:56;;;;;;;4.53;3.10;;;15.90;99.90;;;;;;5046432;28;20309;-84
2021/08/08 05:38:25;;;;;;;3.30;2.47;;;15.90;99.90;;;;;;5061382;28;20878;-84
2021/08/08 05:40:53;;;;;;;5.23;2.77;;;16.00;99.90;;;;;;5055172;28;20666;-84
2021/08/08 05:43:23;;;;;;;3.63;3.27;;;15.90;99.90;;;;;;5052509;28;20230;-83
2021/08/08 05:45:51;;;;;;;4.80;3.63;;;15.90;99.90;;;;;;5050778;28;20286;-83
2021/08/08 05:48:19;;;;;;;4.90;3.40;;;15.80;99.90;;;;;;5049469;28;20252;-83
2021/08/08 05:50:49;;;;;;;3.80;3.50;;;15.80;99.90;;;;;;5052298;28;20240;-84
2021/08/08 05:53:18;;;;;;;4.80;3.90;;;15.90;99.90;;;;;;5056608;28;20231;-84
2021/08/08 05:55:47;;;;;;;5.07;3.93;;;15.90;99.90;;;;;;5054709;28;20703;-83
2021/08/08 05:58:18;;;;;;;4.47;4.07;;;15.90;99.90;;;;;;5046489;28;20284;-84
2021/08/08 06:00:48;;;;;;;4.37;4.03;;;15.90;99.90;;;;;;5043512;28;20243;-84
2021/08/08 06:03:16;;;;;;;5.07;3.97;;;16.00;99.90;;;;;;5068642;28;20591;-83
2021/08/08 06:05:45;;;;;;;4.33;3.93;;;16.00;99.90;;;;;;5030009;28;20240;-83
2021/08/08 06:08:15;;;;;;;5.30;4.30;;;16.00;99.90;;;;;;5050386;28;20700;-84
2021/08/08 06:10:43;;;;;;;4.37;3.97;;;16.00;99.90;;;;;;5047159;28;21011;-83
2021/08/08 06:13:15;;;;;;;4.93;4.37;;;15.90;99.90;;;;;;5048822;28;20224;-83
2021/08/08 06:15:46;;;;;;;4.20;3.90;;;16.00;99.90;;;;;;5045810;28;20232;-84
2021/08/08 06:18:16;;;;;;;4.30;4.00;;;16.00;99.90;;;;;;5054799;28;20273;-84
2021/08/08 06:20:45;;;;;;;4.30;3.90;;;16.00;99.90;;;;;;5051530;28;20328;-83
2021/08/08 06:23:20;;;;;;;5.07;4.07;;;16.00;99.90;;;;;;5042776;28;20228;-84
2021/08/08 06:25:50;;;;;;;4.43;4.03;;;16.00;99.90;;;;;;5058210;28;20235;-84
2021/08/08 06:28:19;;;;;;;4.47;4.07;;;16.10;99.90;;;;;;5057056;28;20231;-84
2021/08/08 06:30:47;;;;;;;5.00;4.60;;;16.10;99.90;;;;;;5043059;28;20247;-83
2021/08/08 06:33:16;;;;;;;5.37;4.87;;;16.10;99.90;;;;;;5053906;28;20238;-84
2021/08/08 06:35:46;;;;;;;5.27;4.80;;;16.10;99.90;;;;;;5046444;28;20290;-84
2021/08/08 06:38:15;;;;;;;5.57;5.03;;;16.10;99.90;;;;;;5052483;28;20243;-84
2021/08/08 06:40:44;;;;;;;5.80;5.27;;;16.10;99.90;;;;;;5048623;28;20733;-84
2021/08/08 06:43:13;;;;;;;5.87;5.27;;;16.10;99.90;;;;;;5050205;28;20235;-84
2021/08/08 06:45:42;;;;;;;5.67;5.27;;;16.20;99.90;;;;;;5043117;28;20626;-84
2021/08/08 06:48:11;;;;;;;5.67;5.17;;;16.20;99.90;;;;;;5045448;28;20259;-84
2021/08/08 06:50:39;;;;;;;6.20;5.60;;;16.20;99.90;;;;;;5034463;28;20305;-84
2021/08/08 06:53:08;;;;;;;6.10;5.57;;;16.20;99.90;;;;;;5046509;28;20229;-84
2021/08/08 06:55:37;;;;;;;5.83;5.33;;;16.30;99.90;;;;;;5067189;28;20247;-83
2021/08/08 06:58:07;;;;;;;5.70;5.20;;;16.20;99.90;;;;;;5033008;28;20231;-84
2021/08/08 07:00:36;;;;;;;6.10;5.50;;;16.30;99.90;;;;;;5046053;28;20628;-84
2021/08/08 07:03:13;;;;;;;5.53;5.10;;;16.40;99.90;;;;;;5065325;28;20231;-84
2021/08/08 07:05:42;;;;;;;5.63;5.23;;;16.40;99.90;;;;;;5050964;28;20691;-84
2021/08/08 07:08:11;;;;;;;5.10;4.70;;;16.40;99.90;;;;;;5039298;28;20228;-84
2021/08/08 07:10:39;;;;;;;5.43;4.93;;;16.40;99.90;;;;;;5044645;28;20762;-84
2021/08/08 07:13:09;;;;;;;6.33;5.77;;;16.40;99.90;;;;;;5037338;28;20288;-84
2021/08/08 07:15:38;;;;;;;6.37;5.60;;;16.40;99.90;;;;;;5031812;28;20293;-84
2021/08/08 07:18:07;;;;;;;5.50;5.10;;;16.40;99.90;;;;;;5026102;28;20240;-84
2021/08/08 07:20:37;;;;;;;5.07;4.67;;;16.40;99.90;;;;;;5038325;28;20244;-84
2021/08/08 07:23:05;;;;;;;5.17;4.70;;;16.40;99.90;;;;;;5042408;28;20628;-83
2021/08/08 07:25:34;;;;;;;5.40;4.70;;;16.40;99.90;;;;;;5052824;28;20450;-83
2021/08/08 07:28:02;;;;;;;5.90;5.00;;;16.40;99.90;;;;;;5043643;28;20847;-84
2021/08/08 07:30:33;;;;;;;4.83;4.37;;;16.40;99.90;;;;;;5042620;28;20282;-84
2021/08/08 07:33:02;;;;;;;5.57;5.00;;;16.40;99.90;;;;;;5043144;28;20326;-84
2021/08/08 07:35:30;;;;;;;6.30;5.73;;;16.50;99.90;;;;;;5026506;28;20240;-84
2021/08/08 07:37:59;;;;;;;6.70;6.03;;;16.60;99.90;;;;;;5048331;28;20235;-84
2021/08/08 07:40:27;;;;;;;7.27;6.67;;;16.80;99.90;;;;;;5026525;28;20279;-84
2021/08/08 07:42:58;;;;;;;7.70;7.00;;;16.80;99.90;;;;;;5039387;28;20237;-85
2021/08/08 07:45:27;;;;;;;8.53;7.83;;;16.80;99.90;;;;;;5027731;28;20519;-83
2021/08/08 07:47:57;;;;;;;8.27;7.37;;;16.90;99.90;;;;;;5044786;28;20632;-84
2021/08/08 07:50:25;;;;;;;8.53;7.80;;;16.90;99.90;;;;;;5040974;28;20241;-85
2021/08/08 07:52:54;;;;;;;9.80;8.70;;;16.90;99.90;;;;;;5052195;28;20301;-85
2021/08/08 07:55:23;;;;;;;11.53;9.83;;;16.90;99.90;;;;;;5047824;28;20243;-85
2021/08/08 07:57:52;;;;;;;11.47;10.30;;;16.90;99.90;;;;;;5051249;28;20246;-85
2021/08/08 08:00:21;;;;;;;10.50;9.63;;;16.90;99.90;;;;;;5027351;28;21063;-84
2021/08/08 08:02:57;;;;;;;11.70;10.50;;;16.80;99.90;;;;;;5026618;28;20564;-84
2021/08/08 08:05:26;;;;;;;10.70;9.80;;;16.80;99.90;;;;;;5044683;28;20314;-85
2021/08/08 08:07:55;;;;;;;11.40;10.30;;;16.90;99.90;;;;;;5041350;28;20254;-83
2021/08/08 08:10:24;;;;;;;10.73;9.87;;;16.90;99.90;;;;;;5030550;28;20235;-84
2021/08/08 08:12:53;;;;;;;10.37;9.57;;;16.90;99.90;;;;;;5049375;28;20628;-83
2021/08/08 08:15:21;;;;;;;9.93;9.03;;;17.10;99.90;;;;;;5051426;28;20599;-84
2021/08/08 08:17:51;;;;;;;9.07;8.27;;;17.20;99.90;;;;;;5034478;28;20252;-85
2021/08/08 08:20:22;;;;;;;9.03;8.23;;;17.40;99.90;;;;;;5039505;28;20231;-85
2021/08/08 08:22:50;;;;;;;8.60;7.80;;;17.60;99.90;;;;;;5043327;28;20241;-84
2021/08/08 08:25:19;;;;;;;8.63;7.80;;;17.60;99.90;;;;;;5051394;28;20235;-85
2021/08/08 08:27:48;;;;;;;8.57;7.87;;;17.70;99.90;;;;;;5049536;28;20241;-85
2021/08/08 08:30:17;;;;;;;8.80;8.00;;;17.70;99.90;;;;;;5038438;28;20227;-84
2021/08/08 08:32:45;;;;;;;8.23;7.47;;;17.70;99.90;;;;;;5043889;28;20280;-85
2021/08/08 08:35:14;;;;;;;8.77;7.97;;;17.90;99.90;;;;;;5050341;28;20336;-84
2021/08/08 08:37:43;;;;;;;8.73;7.77;;;17.90;99.90;;;;;;5037516;28;20256;-84
2021/08/08 08:40:13;;;;;;;8.03;7.40;;;18.10;99.90;;;;;;5042551;28;20609;-84
2021/08/08 08:42:49;;;;;;;8.63;7.80;;;18.20;99.90;;;;;;5055109;28;20290;-85
2021/08/08 08:45:18;;;;;;;9.07;8.23;;;18.20;99.90;;;;;;5053402;28;20243;-85
2021/08/08 08:47:47;;;;;;;8.63;7.93;;;18.10;99.90;;;;;;5037209;28;20244;-84
2021/08/08 08:50:17;;;;;;;8.87;8.03;;;17.90;99.90;;;;;;5041501;28;20300;-84
2021/08/08 08:52:49;;;;;;;10.33;7.67;;;17.80;99.90;;;;;;5049720;28;20243;-84
2021/08/08 08:55:18;;;;;;;8.40;7.70;;;17.80;99.90;;;;;;5045965;28;20767;-84
2021/08/08 08:57:46;;;;;;;8.30;7.50;;;17.90;99.90;;;;;;5050547;28;20240;-84
2021/08/08 09:00:16;;;;;;;8.50;7.60;;;17.90;99.90;;;;;;5042449;28;20319;-85
2021/08/08 09:02:45;;;;;;;8.90;8.00;;;17.80;99.90;;;;;;5048349;28;20879;-85
2021/08/08 09:05:13;;;;;;;8.83;8.10;;;17.70;99.90;;;;;;5048189;28;20329;-85
2021/08/08 09:07:41;;;;;;;9.90;8.33;;;17.60;99.90;;;;;;5039111;28;20253;-86
2021/08/08 09:10:13;;;;;;;8.87;8.07;;;17.60;99.90;;;;;;5038133;28;20731;-85
2021/08/08 09:12:43;;;;;;;9.53;8.53;;;17.50;99.90;;;;;;5037815;28;20239;-85
2021/08/08 09:15:12;;;;;;;10.23;9.37;;;17.50;99.90;;;;;;5038959;28;20252;-84
2021/08/08 09:17:52;;;;;;;10.37;9.37;;;17.40;99.90;;;;;;5038747;28;20709;-85
2021/08/08 09:20:32;;;;;;;14.10;10.17;;;17.40;99.90;;;;;;5037087;28;20320;-85
2021/08/08 09:23:01;;;;;;;10.27;9.27;;;17.40;99.90;;;;;;5047072;28;20309;-85
2021/08/08 09:25:30;;;;;;;11.10;9.53;;;17.40;99.90;;;;;;5036361;28;20259;-84
2021/08/08 09:28:07;;;;;;;11.87;9.60;;;17.40;99.90;;;;;;5051965;28;20250;-85
2021/08/08 09:30:38;;;;;;;11.30;9.90;;;17.30;99.90;;;;;;5050655;28;20244;-84
2021/08/08 09:33:09;;;;;;;11.13;9.93;;;17.30;99.90;;;;;;5056558;28;20240;-85
2021/08/08 09:35:39;;;;;;;12.03;10.27;;;17.30;99.90;;;;;;5044926;28;20338;-85
2021/08/08 09:38:09;;;;;;;12.17;10.27;;;17.30;99.90;;;;;;5047112;28;20233;-84
2021/08/08 09:40:40;;;;;;;13.10;10.17;;;17.30;99.90;;;;;;5040028;28;20599;-85
2021/08/08 09:43:10;;;;;;;11.20;9.70;;;17.30;99.90;;;;;;5033218;28;20303;-84
2021/08/08 09:45:40;;;;;;;11.13;9.20;;;17.20;99.90;;;;;;5032610;28;20661;-84
2021/08/08 09:48:12;;;;;;;13.47;9.30;;;17.20;99.90;;;;;;5044674;28;20675;-84
2021/08/08 09:50:41;;;;;;;10.20;9.20;;;17.20;99.90;;;;;;5042576;28;20293;-84
2021/08/08 09:53:11;;;;;;;15.87;9.90;;;17.30;99.90;;;;;;5046621;28;20924;-84
2021/08/08 09:55:41;;;;;;;13.73;9.30;;;17.30;99.90;;;;;;5047407;28;20723;-84
2021/08/08 09:58:20;;;;;;;10.90;9.00;;;17.30;99.90;;;;;;5046583;28;20240;-85
2021/08/08 10:00:49;;;;;;;13.33;9.70;;;17.30;99.90;;;;;;5041397;28;20251;-84
2021/08/08 10:03:19;;;;;;;12.43;8.90;;;17.40;99.90;;;;;;5044933;28;20799;-84
2021/08/08 10:05:47;;;;;;;13.53;9.30;;;17.40;99.90;;;;;;5049553;28;20249;-85
2021/08/08 10:08:17;;;;;;;13.07;8.50;;;17.50;99.90;;;;;;5041496;28;20647;-84
2021/08/08 10:10:48;;;;;;;13.43;9.10;;;17.50;99.90;;;;;;5044293;28;20374;-85
2021/08/08 10:13:36;;;;;;;13.07;8.07;;;17.70;99.90;;;;;;5042104;28;20240;-84
2021/08/08 10:16:09;;;;;;;9.93;8.23;;;17.90;99.90;;;;;;5052341;28;20265;-85
2021/08/08 10:18:40;;;;;;;9.50;7.50;;;18.10;99.90;;;;;;5044454;28;20283;-85
2021/08/08 10:21:10;;;;;;;11.73;7.90;;;18.30;99.90;;;;;;5045208;28;20320;-83
2021/08/08 10:23:39;;;;;;;11.90;8.00;;;18.40;99.90;;;;;;5043423;28;20254;-85
2021/08/08 10:26:14;;;;;;;11.13;7.30;;;18.60;99.90;;;;;;5034910;28;20257;-83
2021/08/08 10:28:44;;;;;;;9.33;6.50;;;18.80;99.90;;;;;;5046070;28;20340;-85
2021/08/08 10:31:17;;;;;;;14.90;7.40;;;18.90;99.90;;;;;;5039810;28;20237;-86
2021/08/08 10:33:47;;;;;;;9.33;6.07;;;19.00;99.90;;;;;;5044518;28;20859;-85
2021/08/08 10:36:22;;;;;;;10.90;7.33;;;19.10;99.90;;;;;;5044139;28;20247;-84
2021/08/08 10:38:52;;;;;;;14.07;6.83;;;19.10;99.90;;;;;;5042796;28;20963;-84
2021/08/08 10:41:22;;;;;;;11.57;6.77;;;19.10;99.90;;;;;;5043067;28;20262;-84
2021/08/08 10:43:50;;;;;;;10.27;6.50;;;19.00;99.90;;;;;;5043573;28;20273;-84
2021/08/08 10:46:18;;;;;;;12.73;6.40;;;19.00;99.90;;;;;;5043452;28;20226;-84
2021/08/08 10:48:48;;;;;;;11.67;7.27;;;19.00;99.90;;;;;;5039835;28;20238;-84
2021/08/08 10:51:24;;;;;;;9.37;6.47;;;19.00;99.90;;;;;;5041513;28;20235;-84
2021/08/08 10:54:04;;;;;;;9.83;6.10;;;19.10;99.90;;;;;;5043364;28;20735;-84
2021/08/08 10:56:48;;;;;;;11.67;6.20;;;19.20;99.90;;;;;;5043723;28;20367;-83
2021/08/08 10:59:19;;;;;;;8.10;5.97;;;19.10;99.90;;;;;;5040187;28;20306;-84
2021/08/08 11:01:48;;;;;;;10.17;5.93;;;19.10;99.90;;;;;;5045285;28;20298;-84
2021/08/08 11:04:16;;;;;;;9.40;5.83;;;19.10;99.90;;;;;;5040216;28;20242;-85
2021/08/08 11:06:46;;;;;;;10.63;5.90;;;19.20;99.90;;;;;;5041641;28;20716;-84
2021/08/08 11:09:15;;;;;;;11.00;6.17;;;19.30;99.90;;;;;;5038621;28;21950;-84
2021/08/08 11:11:43;;;;;;;9.77;5.67;;;19.40;99.90;;;;;;5041360;28;20595;-85
2021/08/08 11:14:15;;;;;;;10.10;4.87;;;19.60;99.90;;;;;;5043361;28;20267;-84
2021/08/08 11:16:45;;;;;;;11.13;5.03;;;19.80;99.90;;;;;;5046124;28;21302;-84
2021/08/08 11:19:15;;;;;;;9.53;4.90;;;20.00;99.90;;;;;;5040833;28;20239;-84
2021/08/08 11:21:43;;;;;;;10.67;5.00;;;20.20;99.90;;;;;;5027864;28;20250;-84
2021/08/08 11:24:12;;;;;;;9.60;4.97;;;20.10;99.90;;;;;;5044237;28;21303;-85
2021/08/08 11:26:40;;;;;;;6.80;4.73;;;20.10;99.90;;;;;;5041933;28;21180;-85
2021/08/08 11:29:09;;;;;;;10.17;5.40;;;20.10;99.90;;;;;;5040783;28;20253;-85
2021/08/08 11:31:39;;;;;;;8.37;5.00;;;20.20;99.90;;;;;;5045097;28;20282;-84
2021/08/08 11:34:10;;;;;;;6.97;4.33;;;19.90;99.90;;;;;;5043925;28;20262;-84
2021/08/08 11:36:40;;;;;;;11.13;4.73;;;19.90;99.90;;;;;;5041941;28;20688;-84
2021/08/08 11:39:11;;;;;;;9.47;4.57;;;20.00;99.90;;;;;;5027136;28;20234;-85
2021/08/08 11:41:41;;;;;;;8.37;4.17;;;20.40;99.90;;;;;;5043324;28;20243;-84
2021/08/08 11:44:10;;;;;;;8.57;4.40;;;20.70;99.90;;;;;;5043926;28;20250;-84
2021/08/08 11:46:59;;;;;;;9.33;4.30;;;21.20;99.90;;;;;;5047758;28;20318;-84
2021/08/08 11:49:29;;;;;;;8.40;3.67;;;20.90;99.90;;;;;;5036749;28;20235;-84
2021/08/08 11:51:58;;;;;;;6.90;3.60;;;20.90;99.90;;;;;;5041039;28;20270;-84
2021/08/08 11:54:27;;;;;;;7.00;3.43;;;21.30;99.90;;;;;;5042679;28;20238;-84
2021/08/08 11:56:56;;;;;;;6.63;3.10;;;21.30;99.90;;;;;;5045991;28;20242;-84
2021/08/08 11:59:27;;;;;;;7.20;3.13;;;21.40;99.90;;;;;;5042879;28;20239;-84
2021/08/08 12:02:02;;;;;;;7.00;3.47;;;21.40;99.90;;;;;;5050075;28;20652;-86
2021/08/08 12:04:33;;;;;;;8.57;3.17;;;21.50;99.90;;;;;;5045501;28;20805;-82
2021/08/08 12:07:04;;;;;;;6.20;3.13;;;21.50;99.90;;;;;;5046368;28;20237;-86
2021/08/08 12:09:33;;;;;;;6.07;3.53;;;21.20;99.90;;;;;;5040217;28;20241;-85
2021/08/08 12:12:02;;;;;;;7.80;3.90;;;20.80;99.90;;;;;;5047682;28;20254;-84
2021/08/08 12:14:35;;;;;;;7.60;3.70;;;20.80;99.90;;;;;;5049002;28;20235;-86
2021/08/08 12:17:08;;;;;;;8.17;3.30;;;21.10;99.90;;;;;;5053804;28;20845;-85
2021/08/08 12:19:38;;;;;;;6.20;2.97;;;21.50;99.90;;;;;;5043821;28;20247;-85
2021/08/08 12:22:08;;;;;;;6.33;3.33;;;21.60;99.90;;;;;;5048945;28;20245;-86
2021/08/08 12:24:39;;;;;;;5.80;3.13;;;21.50;99.90;;;;;;5050595;28;20251;-86
2021/08/08 12:27:08;;;;;;;7.37;3.37;;;21.10;99.90;;;;;;5048337;28;20673;-85
2021/08/08 12:29:38;;;;;;;6.80;3.47;;;20.60;99.90;;;;;;5039922;28;20250;-85
2021/08/08 12:32:12;;;;;;;5.83;3.83;;;20.20;99.90;;;;;;5043885;28;20240;-86
2021/08/08 12:34:41;;;;;;;7.80;3.47;;;19.80;99.90;;;;;;5046861;28;20317;-84
2021/08/08 12:37:12;;;;;;;5.43;3.70;;;19.60;99.90;;;;;;5046353;28;20699;-85
2021/08/08 12:39:43;;;;;;;4.93;3.80;;;19.60;99.90;;;;;;5043764;28;20263;-85
2021/08/08 12:42:19;;;;;;;6.83;3.90;;;19.70;99.90;;;;;;5045879;28;20246;-85
2021/08/08 12:44:48;;;;;;;6.27;3.97;;;19.80;99.90;;;;;;5047708;28;20250;-85
2021/08/08 12:47:25;;;;;;;6.80;3.80;;;19.90;99.90;;;;;;5045344;28;20231;-84
2021/08/08 12:49:54;;;;;;;7.23;3.97;;;19.70;99.90;;;;;;5045690;28;20710;-84
2021/08/08 12:52:22;;;;;;;6.73;4.07;;;19.70;99.90;;;;;;5046109;28;20232;-84
2021/08/08 12:54:50;;;;;;;7.30;3.87;;;19.60;99.90;;;;;;5057534;28;20239;-85
2021/08/08 12:57:19;;;;;;;8.50;4.17;;;19.50;99.90;;;;;;5045836;28;20449;-85
2021/08/08 12:59:47;;;;;;;5.53;3.60;;;19.70;99.90;;;;;;5042113;28;20254;-85